Time;durP1;ratioP1;P1;durP2;ratioP2;P2;SDS_P1;SDS_P2;PMS_P1;PMS_P2;Temp;Humidity;BMP_temperature;BMP_pressure;BME280_temperature;BME280_humidity;BME280_pressure;Samples;Min_cycle;Max_cycle;Signal;HPM_P1;HPM_P2
2022/04/22 00:00:17;;;;;;;7.47;5.55;;;;;;;8.30;86.99;100040.78;675866;29;1697;-78
2022/04/22 00:00:38;;;;;;;7.55;5.30;;;;;;;8.29;86.21;100044.25;679602;28;1488;-78
2022/04/22 00:00:58;;;;;;;7.30;5.40;;;;;;;8.30;86.06;100038.19;678461;28;5478;-78
2022/04/22 00:01:19;;;;;;;7.53;5.45;;;;;;;8.26;86.90;100039.94;679949;28;1581;-78
2022/04/22 00:01:40;;;;;;;7.57;5.40;;;;;;;8.23;87.16;100045.16;676931;29;1206;-78
2022/04/22 00:02:00;;;;;;;9.57;5.35;;;;;;;8.19;87.19;100044.31;671660;29;1329;-78
2022/04/22 00:02:20;;;;;;;8.00;5.30;;;;;;;8.19;86.49;100043.44;673854;29;1517;-78
2022/04/22 00:02:41;;;;;;;7.97;5.47;;;;;;;8.11;88.42;100040.00;676294;29;1651;-77
2022/04/22 00:03:02;;;;;;;9.35;5.60;;;;;;;8.04;88.57;100049.59;677033;29;1493;-78
2022/04/22 00:03:22;;;;;;;8.82;5.63;;;;;;;7.97;88.79;100046.13;675975;29;1570;-78
2022/04/22 00:03:43;;;;;;;7.97;5.40;;;;;;;7.96;87.67;100040.94;679099;28;1827;-78
2022/04/22 00:04:03;;;;;;;8.43;5.50;;;;;;;8.02;87.56;100043.53;679651;28;4327;-78
2022/04/22 00:04:24;;;;;;;7.72;5.13;;;;;;;8.10;86.11;100028.75;679584;28;1664;-78
2022/04/22 00:04:45;;;;;;;7.47;5.10;;;;;;;8.15;87.00;100041.72;679598;28;1546;-78
2022/04/22 00:05:06;;;;;;;8.10;5.20;;;;;;;8.10;88.06;100039.16;676546;29;1401;-77
2022/04/22 00:05:27;;;;;;;7.63;5.43;;;;;;;8.06;88.39;100042.66;675879;29;1731;-78
2022/04/22 00:05:47;;;;;;;8.50;5.53;;;;;;;8.03;87.49;100042.66;675535;29;1622;-78
2022/04/22 00:06:08;;;;;;;8.07;5.57;;;;;;;8.07;87.57;100033.97;677042;29;1735;-78
2022/04/22 00:06:28;;;;;;;8.05;5.45;;;;;;;8.06;86.97;100044.38;676658;29;1461;-78
2022/04/22 00:06:49;;;;;;;8.85;5.40;;;;;;;8.04;86.92;100044.38;677620;29;1225;-78
2022/04/22 00:07:09;;;;;;;8.10;5.33;;;;;;;8.05;86.53;100037.47;673178;29;4507;-77
2022/04/22 00:07:29;;;;;;;7.53;5.20;;;;;;;8.11;85.91;100033.09;674108;29;1549;-78
2022/04/22 00:07:50;;;;;;;6.70;5.17;;;;;;;8.11;86.60;100033.09;674137;29;1876;-78
2022/04/22 00:08:10;;;;;;;7.07;5.45;;;;;;;8.14;87.25;100034.78;672245;29;1696;-78
2022/04/22 00:08:31;;;;;;;7.30;5.50;;;;;;;8.17;87.13;100038.25;677741;29;1574;-78
2022/04/22 00:08:52;;;;;;;7.18;5.55;;;;;;;8.13;87.28;100036.53;677106;29;1938;-78
2022/04/22 00:09:12;;;;;;;7.75;5.60;;;;;;;8.11;87.94;100035.69;677151;29;1277;-78
2022/04/22 00:09:32;;;;;;;9.07;6.17;;;;;;;8.08;86.73;100038.28;674553;29;1192;-78
2022/04/22 00:09:52;;;;;;;7.10;5.07;;;;;;;8.06;87.20;100032.25;674689;29;1316;-78
2022/04/22 00:10:13;;;;;;;7.70;5.43;;;;;;;8.05;86.15;100035.72;674242;29;4510;-78
2022/04/22 00:10:33;;;;;;;8.73;5.60;;;;;;;8.05;86.60;100040.91;674205;29;2003;-78
2022/04/22 00:11:33;;;;;;;7.10;5.40;;;;;;;8.06;86.98;100031.34;681532;28;1351;-78
2022/04/22 00:11:53;;;;;;;6.80;5.20;;;;;;;8.09;87.35;100037.44;681842;28;1024;-78
2022/04/22 00:12:13;;;;;;;7.73;5.27;;;;;;;8.06;87.87;100034.84;676507;29;1673;-78
2022/04/22 00:12:34;;;;;;;8.13;5.20;;;;;;;8.01;88.33;100034.00;677669;29;1420;-77
2022/04/22 00:12:54;;;;;;;8.07;5.43;;;;;;;7.99;87.64;100038.34;674882;29;1580;-78
2022/04/22 00:13:15;;;;;;;7.55;5.60;;;;;;;7.99;87.45;100041.81;673401;29;5103;-78
2022/04/22 00:13:35;;;;;;;7.97;5.57;;;;;;;8.03;86.40;100027.06;674669;29;1800;-77
2022/04/22 00:13:58;;;;;;;8.40;5.47;;;;;;;8.09;86.89;100034.81;675093;29;1465;-77
2022/04/22 00:14:19;;;;;;;7.28;5.47;;;;;;;8.06;88.01;100032.25;677531;29;1723;-78
2022/04/22 00:14:39;;;;;;;8.05;5.63;;;;;;;8.05;86.80;100030.50;677177;28;1558;-78
2022/04/22 00:14:59;;;;;;;6.90;5.10;;;;;;;8.01;86.99;100039.19;676290;29;1310;-78
2022/04/22 00:15:20;;;;;;;7.28;5.10;;;;;;;8.01;87.26;100045.25;676858;29;1187;-78
2022/04/22 00:15:41;;;;;;;7.73;5.10;;;;;;;7.96;88.61;100040.94;674248;29;1553;-78
2022/04/22 00:16:02;;;;;;;9.20;5.50;;;;;;;7.92;88.86;100034.03;676681;29;4361;-78
2022/04/22 00:16:23;;;;;;;8.95;5.60;;;;;;;7.90;87.23;100040.97;676691;29;3917;-77
2022/04/22 00:16:43;;;;;;;7.43;5.40;;;;;;;8.00;87.00;100040.06;679451;28;1778;-78
2022/04/22 00:17:04;;;;;;;8.00;5.27;;;;;;;7.97;87.16;100037.47;678193;29;1564;-78
2022/04/22 00:17:24;;;;;;;7.47;5.30;;;;;;;7.95;87.02;100034.88;674878;29;1606;-77
2022/04/22 00:17:44;;;;;;;8.00;5.32;;;;;;;7.95;86.98;100034.03;671183;29;1393;-78
2022/04/22 00:18:05;;;;;;;7.57;5.30;;;;;;;8.02;86.07;100028.78;672567;29;1502;-78
2022/04/22 00:18:25;;;;;;;8.23;5.32;;;;;;;8.07;85.10;100026.16;671936;29;1413;-78
2022/04/22 00:18:46;;;;;;;9.27;5.00;;;;;;;8.06;85.68;100033.97;675529;29;1596;-78
2022/04/22 00:19:06;;;;;;;7.53;5.30;;;;;;;8.02;85.69;100026.16;676630;29;4349;-78
2022/04/22 00:19:27;;;;;;;6.90;5.33;;;;;;;8.08;86.02;100025.28;675746;29;2435;-78
2022/04/22 00:19:47;;;;;;;7.65;5.47;;;;;;;8.09;87.16;100029.63;676821;29;1508;-78
2022/04/22 00:20:11;;;;;;;7.57;5.67;;;;;;;8.06;87.60;100027.03;676448;29;1290;-78
2022/04/22 00:20:32;;;;;;;6.93;5.55;;;;;;;8.08;87.56;100030.47;679886;28;1606;-78
2022/04/22 00:20:52;;;;;;;7.20;5.43;;;;;;;8.05;86.98;100025.28;676200;29;1821;-78
2022/04/22 00:21:12;;;;;;;7.00;5.40;;;;;;;8.05;86.27;100020.09;678380;29;1545;-78
2022/04/22 00:21:33;;;;;;;7.60;5.30;;;;;;;8.05;87.12;100025.28;674588;29;2261;-78
2022/04/22 00:21:54;;;;;;;7.22;5.40;;;;;;;7.99;88.33;100030.53;674818;29;1608;-78
2022/04/22 00:22:14;;;;;;;8.10;5.70;;;;;;;7.97;88.65;100032.28;676541;29;4266;-78
2022/04/22 00:22:37;;;;;;;8.65;5.70;;;;;;;7.92;88.53;100028.81;676908;29;1341;-78
2022/04/22 00:22:57;;;;;;;8.90;5.50;;;;;;;7.90;88.50;100025.38;678402;28;1330;-78
2022/04/22 00:23:18;;;;;;;7.80;5.23;;;;;;;7.87;88.75;100028.00;680552;28;1959;-78
2022/04/22 00:23:39;;;;;;;7.63;5.80;;;;;;;7.87;88.47;100028.84;679319;28;1363;-78
2022/04/22 00:23:59;;;;;;;7.82;5.65;;;;;;;7.89;88.90;100023.63;675907;29;1313;-78
2022/04/22 00:24:20;;;;;;;7.90;5.78;;;;;;;7.91;88.74;100024.50;673217;29;1630;-78
2022/04/22 00:24:40;;;;;;;7.87;5.63;;;;;;;7.90;88.51;100026.22;674144;29;1410;-78
2022/04/22 00:25:01;;;;;;;7.87;5.73;;;;;;;7.88;88.76;100027.09;673814;29;4338;-78
2022/04/22 00:25:21;;;;;;;8.18;5.70;;;;;;;7.91;88.62;100024.50;674880;29;1587;-78
2022/04/22 00:25:41;;;;;;;9.10;6.00;;;;;;;7.93;87.10;100023.59;679824;28;1351;-78
2022/04/22 00:26:02;;;;;;;7.67;5.47;;;;;;;7.98;86.94;100028.81;683190;28;940;-78
2022/04/22 00:26:23;;;;;;;7.50;5.43;;;;;;;8.05;86.80;100014.03;681534;28;1555;-78
2022/04/22 00:26:43;;;;;;;7.55;5.90;;;;;;;8.09;86.31;100023.56;682300;28;1341;-78
2022/04/22 00:27:03;;;;;;;7.23;5.67;;;;;;;8.01;87.48;100016.63;682574;28;1024;-78
2022/04/22 00:27:24;;;;;;;7.60;5.60;;;;;;;7.94;88.08;100027.09;683039;28;1217;-78
2022/04/22 00:27:44;;;;;;;7.53;5.63;;;;;;;7.88;88.45;100022.78;681230;28;1351;-78
2022/04/22 00:28:05;;;;;;;7.05;5.60;;;;;;;7.91;86.91;100024.50;680060;28;4335;-78
2022/04/22 00:28:26;;;;;;;6.93;5.40;;;;;;;7.97;86.89;100029.66;678020;29;1376;-77
2022/04/22 00:28:46;;;;;;;8.20;5.63;;;;;;;7.99;86.54;100013.19;678610;28;1938;-78
2022/04/22 00:29:07;;;;;;;7.63;5.57;;;;;;;8.00;87.69;100021.84;678353;29;1161;-78
2022/04/22 00:29:27;;;;;;;7.68;5.75;;;;;;;7.94;89.03;100021.88;677047;29;1295;-78
2022/04/22 00:29:48;;;;;;;7.80;5.60;;;;;;;7.90;89.04;100027.97;677285;29;2001;-78
2022/04/22 00:30:11;;;;;;;7.90;5.67;;;;;;;7.82;89.02;100022.78;676295;29;1385;-78
2022/04/22 00:30:31;;;;;;;8.00;5.82;;;;;;;7.76;89.31;100023.66;679186;29;1402;-78
2022/04/22 00:30:52;;;;;;;9.17;6.10;;;;;;;7.74;89.46;100020.22;678548;28;1258;-78
2022/04/22 00:31:13;;;;;;;7.72;5.60;;;;;;;7.65;89.78;100025.44;678751;29;4280;-78
2022/04/22 00:31:34;;;;;;;7.32;5.50;;;;;;;7.66;88.53;100017.63;675213;29;1630;-78
2022/04/22 00:31:54;;;;;;;7.97;5.50;;;;;;;7.65;88.66;100025.44;676506;29;1187;-78
2022/04/22 00:32:14;;;;;;;7.67;5.30;;;;;;;7.71;88.63;100024.56;682098;28;1654;-78
2022/04/22 00:32:35;;;;;;;8.68;5.40;;;;;;;7.74;89.05;100028.03;679869;29;1586;-78
2022/04/22 00:32:55;;;;;;;7.43;5.57;;;;;;;7.65;89.64;100021.09;677869;29;1192;-78
2022/04/22 00:33:17;;;;;;;8.05;5.70;;;;;;;7.62;90.38;100026.31;677103;29;1601;-78
2022/04/22 00:33:37;;;;;;;8.45;5.68;;;;;;;7.62;90.24;100025.47;676444;29;1628;-78
2022/04/22 00:33:57;;;;;;;8.70;5.55;;;;;;;7.57;90.31;100022.84;676818;29;4318;-78
2022/04/22 00:34:18;;;;;;;7.83;5.53;;;;;;;7.54;90.13;100027.22;673259;29;1721;-78
2022/04/22 00:34:38;;;;;;;7.83;5.73;;;;;;;7.55;89.51;100023.75;671984;29;1696;-78
2022/04/22 00:35:00;;;;;;;8.80;5.80;;;;;;;7.53;89.85;100021.13;669282;29;1577;-78
2022/04/22 00:35:20;;;;;;;9.05;5.80;;;;;;;7.54;89.81;100032.41;671321;29;1356;-78
2022/04/22 00:35:41;;;;;;;7.53;5.70;;;;;;;7.53;89.89;100022.88;674515;29;1590;-78
2022/04/22 00:36:01;;;;;;;8.35;5.80;;;;;;;7.52;90.27;100027.22;676281;29;1189;-78
2022/04/22 00:36:22;;;;;;;8.47;5.97;;;;;;;7.54;90.07;100022.00;676109;29;1241;-78
2022/04/22 00:36:42;;;;;;;8.00;5.78;;;;;;;7.56;89.86;100025.47;673260;29;1282;-78
2022/04/22 00:37:03;;;;;;;8.13;5.60;;;;;;;7.60;89.90;100024.59;674315;29;4333;-78
2022/04/22 00:37:23;;;;;;;9.18;6.22;;;;;;;7.59;90.46;100021.13;674207;29;2039;-78
2022/04/22 00:37:46;;;;;;;9.23;6.17;;;;;;;7.56;90.28;100025.47;674420;29;1577;-78
2022/04/22 00:38:07;;;;;;;7.60;5.63;;;;;;;7.50;90.41;100024.63;672587;29;2359;-78
2022/04/22 00:38:28;;;;;;;7.80;5.80;;;;;;;7.41;90.80;100027.25;674034;28;1059;-78
2022/04/22 00:38:48;;;;;;;8.93;5.97;;;;;;;7.41;90.00;100029.00;678158;29;1336;-78
2022/04/22 00:39:08;;;;;;;8.27;5.70;;;;;;;7.43;90.04;100020.28;677392;29;4874;-78
2022/04/22 00:39:29;;;;;;;7.45;5.50;;;;;;;7.51;88.86;100025.50;676709;29;1462;-78
2022/04/22 00:39:49;;;;;;;8.07;5.60;;;;;;;7.59;88.83;100028.09;675822;29;1548;-78
2022/04/22 00:40:10;;;;;;;8.52;5.70;;;;;;;7.67;87.50;100027.19;676152;29;4302;-77
2022/04/22 00:40:30;;;;;;;7.47;5.30;;;;;;;7.78;87.14;100027.16;677445;29;1281;-78
2022/04/22 00:40:55;;;;;;;7.18;5.10;;;;;;;7.85;86.83;100025.41;677552;28;1108;-78
2022/04/22 00:41:15;;;;;;;7.55;5.30;;;;;;;7.94;86.33;100030.53;679258;29;1595;-77
2022/04/22 00:41:35;;;;;;;8.25;5.50;;;;;;;7.97;86.70;100029.66;675375;29;2012;-78
2022/04/22 00:41:56;;;;;;;8.40;5.33;;;;;;;7.93;86.82;100027.94;674044;29;2051;-78
2022/04/22 00:42:17;;;;;;;7.68;5.60;;;;;;;7.83;87.59;100025.38;677631;29;1696;-78
2022/04/22 00:42:38;;;;;;;7.45;5.45;;;;;;;7.73;89.14;100031.50;676285;29;1440;-78
2022/04/22 00:42:59;;;;;;;7.25;5.55;;;;;;;7.66;89.66;100033.25;671341;29;4520;-78
2022/04/22 00:43:21;;;;;;;7.50;5.70;;;;;;;7.63;89.45;100032.41;676721;29;1452;-78
2022/04/22 00:43:44;;;;;;;8.55;5.93;;;;;;;7.55;89.67;100034.16;673781;29;1316;-77
2022/04/22 00:44:05;;;;;;;9.05;6.03;;;;;;;7.51;89.81;100038.50;674038;29;1103;-78
2022/04/22 00:44:25;;;;;;;8.27;5.80;;;;;;;7.45;90.02;100038.53;674504;29;1818;-77
2022/04/22 00:44:45;;;;;;;8.83;5.90;;;;;;;7.39;91.19;100038.50;673799;29;1216;-78
2022/04/22 00:45:09;;;;;;;8.63;5.77;;;;;;;7.26;92.17;100035.06;673877;29;1501;-78
2022/04/22 00:45:30;;;;;;;7.40;5.80;;;;;;;7.21;90.88;100036.81;678273;29;2188;-77
2022/04/22 00:45:52;;;;;;;8.50;6.10;;;;;;;7.24;90.74;100035.09;677041;29;1630;-78
2022/04/22 00:46:12;;;;;;;8.13;5.60;;;;;;;7.24;90.93;100036.78;677093;29;4300;-78
2022/04/22 00:46:33;;;;;;;7.15;5.43;;;;;;;7.24;91.33;100037.69;677067;29;1704;-77
2022/04/22 00:46:53;;;;;;;7.95;5.85;;;;;;;7.21;92.12;100029.00;675820;29;1099;-77
2022/04/22 00:47:13;;;;;;;8.47;6.00;;;;;;;7.21;91.79;100037.66;677445;29;1652;-77
2022/04/22 00:47:34;;;;;;;7.90;5.78;;;;;;;7.25;90.68;100035.94;679466;28;1790;-77
2022/04/22 00:47:55;;;;;;;7.82;5.78;;;;;;;7.25;90.90;100033.34;682675;28;1248;-77
2022/04/22 00:48:16;;;;;;;7.13;5.50;;;;;;;7.23;92.26;100035.09;680826;28;1582;-77
2022/04/22 00:48:37;;;;;;;8.77;5.90;;;;;;;7.22;92.52;100035.94;682806;28;1673;-77
2022/04/22 00:48:57;;;;;;;8.77;6.00;;;;;;;7.20;92.87;100032.47;677507;29;4344;-77
2022/04/22 00:49:18;;;;;;;9.35;5.80;;;;;;;7.20;93.18;100027.25;673484;29;1202;-77
2022/04/22 00:49:38;;;;;;;9.23;5.90;;;;;;;7.13;92.76;100035.09;669947;29;1427;-77
2022/04/22 00:49:58;;;;;;;7.50;5.87;;;;;;;7.12;92.45;100029.91;671475;29;1302;-77
2022/04/22 00:50:19;;;;;;;7.73;5.90;;;;;;;7.12;92.34;100032.50;672645;29;1696;-77
2022/04/22 00:50:40;;;;;;;8.75;5.80;;;;;;;7.13;91.77;100027.28;677318;29;1638;-77
2022/04/22 00:51:00;;;;;;;8.70;6.00;;;;;;;7.08;92.84;100029.00;676475;29;1306;-77
2022/04/22 00:51:22;;;;;;;8.48;6.07;;;;;;;7.12;93.10;100025.53;679042;29;849;-77
2022/04/22 00:51:42;;;;;;;8.40;6.00;;;;;;;7.09;93.53;100022.97;674022;29;1308;-77
2022/04/22 00:52:04;;;;;;;8.27;5.90;;;;;;;7.11;92.25;100025.56;672688;29;4348;-77
2022/04/22 00:52:25;;;;;;;7.50;5.60;;;;;;;7.10;93.08;100029.91;674300;29;1287;-77
2022/04/22 00:52:45;;;;;;;7.85;5.93;;;;;;;7.08;93.75;100033.34;673111;29;1293;-77
2022/04/22 00:53:07;;;;;;;8.63;6.23;;;;;;;7.06;93.82;100029.88;670450;29;1712;-77
2022/04/22 00:53:28;;;;;;;8.05;6.15;;;;;;;6.97;94.30;100030.75;672364;29;1668;-77
2022/04/22 00:53:50;;;;;;;8.55;6.22;;;;;;;6.88;95.11;100029.03;674109;29;1869;-77
2022/04/22 00:54:10;;;;;;;7.95;6.18;;;;;;;6.88;94.35;100025.56;676078;29;1563;-77
2022/04/22 00:54:32;;;;;;;7.80;5.90;;;;;;;6.90;94.32;100022.09;676624;29;1593;-77
2022/04/22 00:54:53;;;;;;;7.78;5.90;;;;;;;6.90;93.84;100019.50;676976;29;1206;-77
2022/04/22 00:55:13;;;;;;;8.57;6.13;;;;;;;6.93;93.88;100019.47;675983;29;4469;-78
2022/04/22 00:55:36;;;;;;;8.13;6.20;;;;;;;6.90;94.73;100019.50;676728;29;1617;-77
2022/04/22 00:55:56;;;;;;;9.13;6.25;;;;;;;6.88;94.83;100021.25;676368;29;1249;-77
2022/04/22 00:56:17;;;;;;;9.73;6.35;;;;;;;6.86;95.33;100015.16;676613;29;1178;-77
2022/04/22 00:56:37;;;;;;;8.85;6.20;;;;;;;6.85;94.83;100017.75;678842;28;1176;-77
2022/04/22 00:56:58;;;;;;;8.63;6.40;;;;;;;6.88;94.20;100022.94;676797;29;1352;-77
2022/04/22 00:57:19;;;;;;;8.25;6.07;;;;;;;6.94;93.29;100022.97;676767;29;1406;-77
2022/04/22 00:57:41;;;;;;;8.63;5.90;;;;;;;6.96;92.94;100022.09;677056;29;1334;-77
2022/04/22 00:58:02;;;;;;;8.63;6.03;;;;;;;6.97;92.68;100020.38;678538;29;4355;-77
2022/04/22 00:58:23;;;;;;;7.93;6.10;;;;;;;7.01;92.55;100022.09;681867;28;1132;-77
2022/04/22 00:58:47;;;;;;;7.47;5.50;;;;;;;7.01;93.30;100019.50;679997;29;1334;-77
2022/04/22 00:59:08;;;;;;;7.03;5.95;;;;;;;6.95;94.31;100022.09;674819;29;1667;-77
2022/04/22 00:59:31;;;;;;;8.07;6.13;;;;;;;6.93;93.97;100018.63;671936;29;1681;-77
2022/04/22 00:59:51;;;;;;;8.30;6.30;;;;;;;6.88;94.90;100015.16;673610;29;1106;-77
2022/04/22 01:00:12;;;;;;;8.10;6.10;;;;;;;6.84;95.24;100016.91;673389;29;1865;-77
2022/04/22 01:00:33;;;;;;;8.70;6.40;;;;;;;6.80;95.28;100021.22;679515;29;1636;-77
2022/04/22 01:00:53;;;;;;;9.50;6.67;;;;;;;6.82;94.40;100018.63;676371;29;1587;-77
2022/04/22 01:01:14;;;;;;;8.68;6.50;;;;;;;6.86;94.23;100022.97;677049;29;4277;-77
2022/04/22 01:01:35;;;;;;;7.90;6.20;;;;;;;6.85;94.31;100018.63;677101;29;1502;-77
2022/04/22 01:01:56;;;;;;;8.02;6.25;;;;;;;6.85;94.28;100009.97;671916;29;1295;-77
2022/04/22 01:02:16;;;;;;;7.40;6.00;;;;;;;6.85;94.60;100015.16;671423;29;1378;-78
2022/04/22 01:02:36;;;;;;;8.80;6.20;;;;;;;6.79;94.52;100011.69;677646;29;1399;-77
2022/04/22 01:02:57;;;;;;;9.17;6.17;;;;;;;6.82;94.22;100013.44;678095;29;1344;-77
2022/04/22 01:03:18;;;;;;;8.13;6.40;;;;;;;6.82;94.93;100014.28;680652;28;1700;-77
2022/04/22 01:03:39;;;;;;;8.80;6.65;;;;;;;6.81;94.62;100004.78;679513;28;1426;-77
2022/04/22 01:09:56;;;;;;;8.90;6.50;;;;;;;6.88;94.93;100007.38;678506;28;4365;-77
2022/04/22 01:10:16;;;;;;;8.35;6.30;;;;;;;6.84;94.02;100008.22;681307;28;1751;-77
2022/04/22 01:10:37;;;;;;;8.20;6.30;;;;;;;6.86;93.31;100011.72;678212;29;1848;-77
2022/04/22 01:10:57;;;;;;;8.60;6.50;;;;;;;6.86;93.63;100014.31;676514;29;1237;-77
2022/04/22 01:11:18;;;;;;;8.47;6.37;;;;;;;6.85;93.17;100008.22;676725;29;1737;-77
2022/04/22 01:11:39;;;;;;;8.52;6.40;;;;;;;6.84;92.83;100000.44;677444;29;1369;-77
2022/04/22 01:12:00;;;;;;;9.00;6.20;;;;;;;6.84;93.05;100006.53;675597;29;1245;-77
2022/04/22 01:12:20;;;;;;;9.45;6.20;;;;;;;6.82;93.65;100003.88;679166;29;1596;-77
2022/04/22 01:12:41;;;;;;;7.57;6.50;;;;;;;6.84;93.78;100009.13;675211;29;4017;-77
2022/04/22 01:13:01;;;;;;;8.05;6.45;;;;;;;6.86;93.79;100012.56;675032;29;4368;-77
2022/04/22 01:13:22;;;;;;;9.13;6.70;;;;;;;6.85;94.56;100005.63;673106;29;1431;-77
2022/04/22 01:13:43;;;;;;;9.25;6.82;;;;;;;6.80;94.74;100016.03;675685;29;1614;-77
2022/04/22 01:14:07;;;;;;;9.10;6.88;;;;;;;6.78;95.48;100006.50;675048;29;1448;-77
2022/04/22 01:14:28;;;;;;;9.05;6.68;;;;;;;6.75;95.49;100009.09;675068;29;1227;-78
2022/04/22 01:14:48;;;;;;;8.50;6.40;;;;;;;6.75;94.89;100006.50;674834;29;1169;-77
2022/04/22 01:15:09;;;;;;;9.48;6.53;;;;;;;6.71;95.73;100008.22;674435;29;845;-77
2022/04/22 01:15:30;;;;;;;8.85;6.45;;;;;;;6.70;94.91;100001.31;675366;29;1557;-77
2022/04/22 01:15:50;;;;;;;8.90;6.30;;;;;;;6.72;94.36;100007.38;677750;29;1641;-77
2022/04/22 01:16:10;;;;;;;8.48;5.97;;;;;;;6.73;93.72;100010.81;672423;29;4474;-77
2022/04/22 01:16:31;;;;;;;8.93;6.27;;;;;;;6.77;94.30;100003.03;674004;29;1253;-77
2022/04/22 01:16:51;;;;;;;8.82;6.10;;;;;;;6.79;94.27;100011.69;671237;29;1511;-77
2022/04/22 01:17:12;;;;;;;8.80;6.50;;;;;;;6.78;94.25;100007.38;671036;29;1128;-77
2022/04/22 01:17:32;;;;;;;9.02;6.60;;;;;;;6.82;94.41;100003.88;671707;29;1692;-77
2022/04/22 01:17:53;;;;;;;9.20;6.60;;;;;;;6.80;94.43;100005.63;671730;29;1482;-77
2022/04/22 01:18:14;;;;;;;9.10;6.43;;;;;;;6.75;95.19;100004.75;674611;29;1421;-77
2022/04/22 01:18:37;;;;;;;9.00;6.30;;;;;;;6.75;94.32;100015.16;673990;29;1042;-77
2022/04/22 01:18:59;;;;;;;8.20;6.40;;;;;;;6.87;93.45;100003.91;675888;29;4329;-77
2022/04/22 01:19:20;;;;;;;8.68;6.53;;;;;;;6.89;93.86;100001.31;678627;29;1268;-77
2022/04/22 01:19:41;;;;;;;7.82;6.40;;;;;;;6.82;94.09;100006.50;677143;29;1843;-77
2022/04/22 01:20:03;;;;;;;8.43;6.03;;;;;;;6.82;93.74;100006.50;677108;29;1647;-77
2022/04/22 01:20:24;;;;;;;8.60;6.07;;;;;;;6.84;93.61;100003.03;679532;29;1020;-77
2022/04/22 01:20:44;;;;;;;8.43;6.50;;;;;;;6.84;92.68;100009.13;679148;28;1693;-77
2022/04/22 01:21:05;;;;;;;7.90;6.38;;;;;;;6.84;93.40;100001.31;677288;29;1390;-77
2022/04/22 01:21:25;;;;;;;8.17;6.67;;;;;;;6.78;94.87;100002.19;678988;28;1146;-77
2022/04/22 01:21:45;;;;;;;8.25;6.75;;;;;;;6.75;95.15;99998.72;681384;28;1341;-77
2022/04/22 01:22:06;;;;;;;8.40;6.60;;;;;;;6.76;95.34;100001.31;680075;28;4300;-77
2022/04/22 01:22:27;;;;;;;9.07;6.78;;;;;;;6.75;94.30;99998.72;675353;29;1332;-77
2022/04/22 01:22:48;;;;;;;9.07;6.70;;;;;;;6.78;93.81;99999.59;678912;28;1371;-77
2022/04/22 01:23:08;;;;;;;8.77;6.40;;;;;;;6.80;94.92;99997.84;676852;29;1794;-78
2022/04/22 01:23:29;;;;;;;8.60;6.20;;;;;;;6.73;95.18;99996.13;679417;29;1377;-77
2022/04/22 01:23:50;;;;;;;8.52;6.55;;;;;;;6.63;95.90;100002.16;680301;29;1805;-77
2022/04/22 01:24:10;;;;;;;8.63;6.50;;;;;;;6.60;95.62;99999.56;679573;28;956;-77
2022/04/22 01:24:31;;;;;;;8.37;6.47;;;;;;;6.64;95.22;99996.97;678997;29;1181;-77
2022/04/22 01:24:57;;;;;;;9.15;6.45;;;;;;;6.73;94.63;99995.22;675416;29;1288;-77
2022/04/22 01:25:18;;;;;;;8.15;6.25;;;;;;;6.75;94.64;100001.31;675464;29;4913;-77
2022/04/22 01:25:39;;;;;;;8.43;6.40;;;;;;;6.74;94.97;99997.84;676434;29;1777;-77
2022/04/22 01:26:00;;;;;;;8.60;6.30;;;;;;;6.70;94.23;99995.25;672408;29;1493;-77
2022/04/22 01:26:21;;;;;;;9.23;6.53;;;;;;;6.67;94.59;99988.31;677531;29;1617;-77
2022/04/22 01:26:43;;;;;;;8.65;6.10;;;;;;;6.67;94.30;99996.09;678742;29;1484;-77
2022/04/22 01:27:04;;;;;;;8.57;6.10;;;;;;;6.65;93.81;99992.66;677555;29;1446;-77
2022/04/22 01:27:27;;;;;;;8.77;6.55;;;;;;;6.67;94.00;99992.66;677225;29;1687;-77
2022/04/22 01:27:49;;;;;;;7.97;6.03;;;;;;;6.65;94.01;99992.66;675552;29;1691;-77
2022/04/22 01:28:10;;;;;;;7.93;5.93;;;;;;;6.73;93.51;99990.94;676416;29;5235;-77
2022/04/22 01:28:31;;;;;;;7.80;5.88;;;;;;;6.70;94.84;99996.13;679173;29;1530;-77
2022/04/22 01:28:51;;;;;;;8.63;6.40;;;;;;;6.64;95.54;99993.50;681024;28;1930;-77
2022/04/22 01:29:13;;;;;;;8.93;6.50;;;;;;;6.60;95.85;99992.63;681039;28;1234;-77
2022/04/22 01:29:34;;;;;;;8.13;6.22;;;;;;;6.59;96.36;99987.44;680380;28;1462;-77
2022/04/22 01:30:00;;;;;;;8.90;6.30;;;;;;;6.61;94.76;99994.38;678552;29;1879;-77
2022/04/22 01:30:22;;;;;;;9.02;6.63;;;;;;;6.64;94.65;99993.50;678594;29;1541;-77
2022/04/22 01:30:42;;;;;;;8.07;6.20;;;;;;;6.63;94.56;99986.56;677654;28;1825;-78
2022/04/22 01:31:02;;;;;;;8.07;6.40;;;;;;;6.60;94.56;99994.38;675153;29;4547;-77
2022/04/22 01:31:23;;;;;;;8.27;6.03;;;;;;;6.56;95.06;99990.03;675877;29;1420;-77
2022/04/22 01:31:43;;;;;;;8.23;6.10;;;;;;;6.58;94.92;99985.72;674159;29;1353;-77
2022/04/22 01:32:04;;;;;;;9.40;6.28;;;;;;;6.59;95.27;99983.13;674347;29;1794;-78
2022/04/22 01:32:26;;;;;;;9.43;6.70;;;;;;;6.54;96.15;99989.19;673219;29;1656;-77
2022/04/22 01:32:50;;;;;;;8.55;6.18;;;;;;;6.54;95.07;99986.59;675194;29;1617;-77
2022/04/22 01:33:11;;;;;;;8.43;6.45;;;;;;;6.59;95.39;99985.72;678341;29;1732;-77
2022/04/22 01:33:31;;;;;;;10.18;6.75;;;;;;;6.63;95.16;99989.16;680735;28;943;-77
2022/04/22 01:33:52;;;;;;;8.98;6.97;;;;;;;6.57;95.44;99990.03;678718;28;1205;-77
2022/04/22 01:34:13;;;;;;;8.53;6.50;;;;;;;6.51;96.00;99991.75;678673;28;4329;-77
2022/04/22 01:34:33;;;;;;;8.57;6.43;;;;;;;6.43;96.83;99992.63;678788;29;1664;-77
2022/04/22 01:34:54;;;;;;;8.82;6.43;;;;;;;6.39;96.97;99983.09;679187;28;1292;-78
2022/04/22 01:35:14;;;;;;;8.83;6.57;;;;;;;6.35;96.71;99989.13;679981;29;1400;-77
2022/04/22 01:35:34;;;;;;;9.13;7.10;;;;;;;6.33;97.14;99993.47;679957;29;1590;-77
2022/04/22 01:35:55;;;;;;;8.53;6.87;;;;;;;6.34;96.92;99984.84;676880;29;1521;-77
2022/04/22 01:36:16;;;;;;;9.43;6.88;;;;;;;6.33;97.22;99995.19;676905;29;1719;-77
2022/04/22 01:36:36;;;;;;;11.02;7.38;;;;;;;6.29;98.00;99990.00;676555;29;1551;-77
2022/04/22 01:36:57;;;;;;;11.43;7.90;;;;;;;6.21;98.32;99991.72;673000;29;4503;-77
2022/04/22 01:37:17;;;;;;;12.02;7.78;;;;;;;6.14;98.84;99984.78;676839;29;1321;-78
2022/04/22 01:37:42;;;;;;;13.80;8.50;;;;;;;6.08;98.95;99990.81;677140;29;1070;-77
2022/04/22 01:38:02;;;;;;;13.95;8.23;;;;;;;6.11;97.77;99985.63;674088;29;1213;-78
2022/04/22 01:38:23;;;;;;;11.80;7.50;;;;;;;6.17;97.45;99984.78;676908;29;2070;-78
2022/04/22 01:38:43;;;;;;;11.18;7.47;;;;;;;6.25;96.99;99990.84;671333;29;1386;-77
2022/04/22 01:39:04;;;;;;;11.20;7.43;;;;;;;6.32;96.71;99981.34;672785;29;4575;-77
2022/04/22 01:39:24;;;;;;;10.23;7.23;;;;;;;6.32;96.82;99981.34;676285;29;1126;-77
2022/04/22 01:39:44;;;;;;;9.53;7.20;;;;;;;6.28;97.85;99985.66;675576;29;1366;-77
2022/04/22 01:40:05;;;;;;;11.13;7.47;;;;;;;6.25;97.93;99988.25;674591;29;4398;-77
2022/04/22 01:40:26;;;;;;;11.23;7.57;;;;;;;6.23;97.74;99990.00;676064;29;1196;-77
2022/04/22 01:40:46;;;;;;;11.40;7.27;;;;;;;6.28;97.41;99984.81;676453;29;1222;-77
2022/04/22 01:41:07;;;;;;;9.60;6.88;;;;;;;6.32;96.45;99978.75;676295;29;1871;-78
2022/04/22 01:41:27;;;;;;;9.20;6.83;;;;;;;6.33;95.69;99977.91;675636;29;1627;-77
2022/04/22 01:41:47;;;;;;;10.48;6.90;;;;;;;6.44;95.17;99981.38;677409;29;1832;-77
2022/04/22 01:42:08;;;;;;;10.83;7.10;;;;;;;6.52;94.92;99980.50;675646;29;1968;-77
2022/04/22 01:42:29;;;;;;;10.30;6.95;;;;;;;6.47;95.82;99983.97;675407;29;1237;-77
2022/04/22 01:42:49;;;;;;;10.60;7.22;;;;;;;6.45;95.05;99984.81;677260;29;2060;-77
2022/04/22 01:43:09;;;;;;;10.43;6.90;;;;;;;6.45;96.15;99979.63;675742;29;4331;-77
2022/04/22 01:43:30;;;;;;;9.48;6.43;;;;;;;6.46;95.02;99977.03;675409;29;1236;-77
2022/04/22 01:43:50;;;;;;;8.87;6.40;;;;;;;6.44;95.84;99976.19;678918;29;1272;-77
2022/04/22 01:44:11;;;;;;;10.02;6.90;;;;;;;6.42;96.12;99982.22;680738;28;1247;-77
2022/04/22 01:44:32;;;;;;;10.07;7.03;;;;;;;6.42;96.52;99975.28;675042;29;1420;-77
2022/04/22 01:44:52;;;;;;;10.60;7.18;;;;;;;6.41;96.78;99971.00;676198;29;1186;-77
2022/04/22 01:45:13;;;;;;;10.20;7.47;;;;;;;6.42;96.32;99990.03;679134;29;1397;-77
2022/04/22 01:45:34;;;;;;;10.95;6.85;;;;;;;6.41;96.54;99976.19;680120;29;1389;-77
2022/04/22 01:45:54;;;;;;;11.45;7.15;;;;;;;6.44;96.25;99968.38;679509;29;1371;-77
2022/04/22 01:46:15;;;;;;;10.80;7.10;;;;;;;6.46;96.45;99971.84;679812;28;4344;-77
2022/04/22 01:46:36;;;;;;;11.90;7.47;;;;;;;6.44;97.29;99973.59;679364;29;1724;-76
2022/04/22 01:46:57;;;;;;;9.80;7.43;;;;;;;6.40;97.59;99977.03;675662;29;1418;-76
2022/04/22 01:47:19;;;;;;;11.57;7.50;;;;;;;6.40;97.83;99981.38;676021;29;1307;-76